createdAt,value
2022-11-20T00:01:25.671Z,9.10
2022-11-20T00:03:54.382Z,8.75
2022-11-20T00:06:23.138Z,8.88
2022-11-20T00:08:50.512Z,8.48
2022-11-20T00:11:20.034Z,7.57
2022-11-20T00:13:48.570Z,7.15
2022-11-20T00:16:18.152Z,7.57
2022-11-20T00:18:45.818Z,6.35
2022-11-20T00:21:15.325Z,6.60
2022-11-20T00:23:42.807Z,6.40
2022-11-20T00:26:15.250Z,6.53
2022-11-20T00:28:42.999Z,5.97
2022-11-20T00:31:15.271Z,5.65
2022-11-20T00:33:43.528Z,5.30
2022-11-20T00:36:15.774Z,4.97
2022-11-20T00:38:43.705Z,5.18
2022-11-20T00:41:13.471Z,4.22
2022-11-20T00:43:40.629Z,3.95
2022-11-20T00:46:13.910Z,4.05
2022-11-20T00:48:40.721Z,4.90
2022-11-20T00:51:08.354Z,3.90
2022-11-20T00:53:35.456Z,4.68
2022-11-20T00:56:06.789Z,4.65
2022-11-20T00:58:35.896Z,4.10
2022-11-20T01:01:18.783Z,4.20
2022-11-20T01:03:50.721Z,4.32
2022-11-20T01:06:32.277Z,4.85
2022-11-20T01:09:02.830Z,5.10
2022-11-20T01:11:31.979Z,4.22
2022-11-20T01:14:01.486Z,4.80
2022-11-20T01:16:31.598Z,5.20
2022-11-20T01:19:01.975Z,5.13
2022-11-20T01:21:31.559Z,4.50
2022-11-20T01:23:59.413Z,4.65
2022-11-20T01:26:28.697Z,6.13
2022-11-20T01:28:56.531Z,7.68
2022-11-20T01:31:35.185Z,7.95
2022-11-20T01:34:13.528Z,6.75
2022-11-20T01:36:40.726Z,5.07
2022-11-20T01:39:25.539Z,5.25
2022-11-20T01:42:12.576Z,4.55
2022-11-20T01:44:58.076Z,4.78
2022-11-20T01:47:44.948Z,5.07
2022-11-20T01:50:20.566Z,5.03
2022-11-20T01:52:52.382Z,4.85
2022-11-20T01:55:26.879Z,6.28
2022-11-20T01:57:53.932Z,5.97
2022-11-20T02:00:21.736Z,5.25
2022-11-20T02:02:54.621Z,5.43
2022-11-20T02:05:43.768Z,4.95
2022-11-20T02:08:10.622Z,4.93
2022-11-20T02:10:37.444Z,4.57
2022-11-20T02:13:23.332Z,5.03
2022-11-20T02:15:50.761Z,5.97
2022-11-20T02:18:20.220Z,5.18
2022-11-20T02:20:50.105Z,4.43
2022-11-20T02:23:19.648Z,4.05
2022-11-20T02:25:48.283Z,3.80
2022-11-20T02:28:15.853Z,4.60
2022-11-20T02:30:42.785Z,4.38
2022-11-20T02:33:09.629Z,4.57
2022-11-20T02:35:36.359Z,5.10
2022-11-20T02:38:03.916Z,5.07
2022-11-20T02:40:30.839Z,6.00
2022-11-20T02:42:58.240Z,7.03
2022-11-20T02:45:26.013Z,7.82
2022-11-20T02:47:53.295Z,7.28
2022-11-20T02:50:20.885Z,6.63
2022-11-20T02:52:47.803Z,6.97
2022-11-20T02:55:14.599Z,6.10
2022-11-20T02:57:41.412Z,6.75
2022-11-20T03:00:08.999Z,6.47
2022-11-20T03:02:35.772Z,5.03
2022-11-20T03:05:02.594Z,5.95
2022-11-20T03:07:29.696Z,5.60
2022-11-20T03:09:56.516Z,4.85
2022-11-20T03:12:23.290Z,4.13
2022-11-20T03:14:53.088Z,4.00
2022-11-20T03:17:20.418Z,5.47
2022-11-20T03:19:47.201Z,4.80
2022-11-20T03:22:14.307Z,5.53
2022-11-20T03:24:41.194Z,5.38
2022-11-20T03:27:07.978Z,6.07
2022-11-20T03:29:36.272Z,5.18
2022-11-20T03:32:03.123Z,5.70
2022-11-20T03:34:30.122Z,6.10
2022-11-20T03:36:56.958Z,6.93
2022-11-20T03:39:24.052Z,5.90
2022-11-20T03:41:51.101Z,6.00
2022-11-20T03:44:17.896Z,5.43
2022-11-20T03:46:44.726Z,4.82
2022-11-20T03:49:11.512Z,4.88
2022-11-20T03:51:38.309Z,4.57
2022-11-20T03:54:09.021Z,5.38
2022-11-20T03:56:38.712Z,5.25
2022-11-20T03:59:05.975Z,5.53
2022-11-20T04:01:35.142Z,5.68
2022-11-20T04:04:02.638Z,5.55
2022-11-20T04:06:31.884Z,5.38
2022-11-20T04:08:59.721Z,6.30
2022-11-20T04:11:28.012Z,6.40
2022-11-20T04:14:00.196Z,6.05
2022-11-20T04:16:29.776Z,6.07
2022-11-20T04:18:59.017Z,6.57
2022-11-20T04:21:26.842Z,6.70
2022-11-20T04:23:54.549Z,6.43
2022-11-20T04:26:23.094Z,6.00
2022-11-20T04:28:50.010Z,6.43
2022-11-20T04:31:20.003Z,6.35
2022-11-20T04:33:47.411Z,7.30
2022-11-20T04:36:16.824Z,6.05
2022-11-20T04:38:44.067Z,6.43
2022-11-20T04:41:18.509Z,6.20
2022-11-20T04:43:50.635Z,6.22
2022-11-20T04:46:18.847Z,6.13
2022-11-20T04:48:46.079Z,6.32
2022-11-20T04:51:13.384Z,5.88
2022-11-20T04:53:40.586Z,6.20
2022-11-20T04:56:09.936Z,6.07
2022-11-20T04:58:37.041Z,6.57
2022-11-20T05:01:05.790Z,6.35
2022-11-20T05:03:32.790Z,5.78
2022-11-20T05:06:04.127Z,6.10
2022-11-20T05:08:32.325Z,5.32
2022-11-20T05:11:11.021Z,6.05
2022-11-20T05:13:37.942Z,5.72
2022-11-20T05:16:16.212Z,5.60
2022-11-20T05:18:43.906Z,5.32
2022-11-20T05:21:12.032Z,5.53
2022-11-20T05:23:39.666Z,5.68
2022-11-20T05:26:08.656Z,7.00
2022-11-20T05:28:35.948Z,7.07
2022-11-20T05:31:12.293Z,8.80
2022-11-20T05:33:42.066Z,7.93
2022-11-20T05:36:09.556Z,7.57
2022-11-20T05:38:36.656Z,8.27
2022-11-20T05:41:11.465Z,7.97
2022-11-20T05:43:39.978Z,8.10
2022-11-20T05:46:08.784Z,7.88
2022-11-20T05:48:36.374Z,7.78
2022-11-20T05:51:04.748Z,9.00
2022-11-20T05:53:33.880Z,8.07
2022-11-20T05:56:02.639Z,7.50
2022-11-20T05:58:30.671Z,6.15
2022-11-20T06:01:12.895Z,6.28
2022-11-20T06:03:40.787Z,6.88
2022-11-20T06:06:08.058Z,6.35
2022-11-20T06:08:35.195Z,6.25
2022-11-20T06:11:10.219Z,5.70
2022-11-20T06:13:41.885Z,5.43
2022-11-20T06:16:09.739Z,5.30
2022-11-20T06:18:36.898Z,5.10
2022-11-20T06:21:09.474Z,5.30
2022-11-20T06:23:37.619Z,5.25
2022-11-20T06:26:07.202Z,4.60
2022-11-20T06:28:34.322Z,4.15
2022-11-20T06:31:01.618Z,5.63
2022-11-20T06:33:28.815Z,9.80
2022-11-20T06:36:05.873Z,6.25
2022-11-20T06:38:37.588Z,6.70
2022-11-20T06:41:05.720Z,8.15
2022-11-20T06:43:32.482Z,8.13
2022-11-20T06:46:00.130Z,7.88
2022-11-20T06:48:28.780Z,7.25
2022-11-20T06:50:55.912Z,8.15
2022-11-20T06:53:23.537Z,5.80
2022-11-20T06:55:51.201Z,6.30
2022-11-20T06:58:18.567Z,5.75
2022-11-20T07:00:45.614Z,5.03
2022-11-20T07:03:13.185Z,7.90
2022-11-20T07:05:41.183Z,10.95
2022-11-20T07:08:08.864Z,7.95
2022-11-20T07:10:36.365Z,6.22
2022-11-20T07:13:03.280Z,5.47
2022-11-20T07:15:30.838Z,5.25
2022-11-20T07:18:00.785Z,3.83
2022-11-20T07:20:28.053Z,3.67
2022-11-20T07:22:56.719Z,4.80
2022-11-20T07:25:24.329Z,4.55
2022-11-20T07:27:51.265Z,3.75
2022-11-20T07:30:19.044Z,3.67
2022-11-20T07:32:53.012Z,3.67
2022-11-20T07:35:20.416Z,3.60
2022-11-20T07:37:48.222Z,3.88
2022-11-20T07:40:15.595Z,3.92
2022-11-20T07:42:54.112Z,2.90
2022-11-20T07:45:22.859Z,3.05
2022-11-20T07:47:49.861Z,3.10
2022-11-20T07:50:17.380Z,4.25
2022-11-20T07:52:44.395Z,3.92
2022-11-20T07:55:11.817Z,2.85
2022-11-20T07:57:38.814Z,3.25
2022-11-20T08:00:09.804Z,2.30
2022-11-20T08:02:42.850Z,2.00
2022-11-20T08:05:10.958Z,1.77
2022-11-20T08:07:39.774Z,2.58
2022-11-20T08:10:08.427Z,2.80
2022-11-20T08:12:53.884Z,2.88
2022-11-20T08:15:20.790Z,3.10
2022-11-20T08:18:08.236Z,3.28
2022-11-20T08:20:35.517Z,2.65
2022-11-20T08:23:04.378Z,2.70
2022-11-20T08:25:31.874Z,2.45
2022-11-20T08:28:10.301Z,3.22
2022-11-20T08:30:46.872Z,2.50
2022-11-20T08:33:14.017Z,2.70
2022-11-20T08:35:42.160Z,2.83
2022-11-20T08:38:10.401Z,2.60
2022-11-20T08:40:37.227Z,3.25
2022-11-20T08:43:04.013Z,2.40
2022-11-20T08:45:34.300Z,2.75
2022-11-20T08:48:03.417Z,2.20
2022-11-20T08:50:32.598Z,2.10
2022-11-20T08:53:08.595Z,1.85
2022-11-20T08:55:38.233Z,2.17
2022-11-20T08:58:06.258Z,2.15
2022-11-20T09:00:34.035Z,2.35
2022-11-20T09:03:02.197Z,2.30
2022-11-20T09:05:30.269Z,2.15
2022-11-20T09:08:00.476Z,1.23
2022-11-20T09:10:28.271Z,1.33
2022-11-20T09:12:58.662Z,1.08
2022-11-20T09:15:26.896Z,0.90
2022-11-20T09:18:01.467Z,0.90
2022-11-20T09:20:30.003Z,1.40
2022-11-20T09:22:57.998Z,2.42
2022-11-20T09:25:25.384Z,1.60
2022-11-20T09:27:59.414Z,2.10
2022-11-20T09:30:26.618Z,3.63
2022-11-20T09:32:53.423Z,10.90
2022-11-20T09:35:20.391Z,17.95
2022-11-20T09:37:47.315Z,9.57
2022-11-20T09:40:26.421Z,9.82
2022-11-20T09:43:19.554Z,5.63
2022-11-20T09:46:08.059Z,10.70
2022-11-20T09:49:01.249Z,8.75
2022-11-20T09:52:01.832Z,5.63
2022-11-20T09:54:40.207Z,5.15
2022-11-20T09:57:12.698Z,2.25
2022-11-20T09:59:52.254Z,2.75
2022-11-20T10:02:25.269Z,2.65
2022-11-20T10:05:04.157Z,4.30
2022-11-20T10:07:42.611Z,5.10
2022-11-20T10:10:28.892Z,3.80
2022-11-20T10:13:20.587Z,5.03
2022-11-20T10:16:04.334Z,3.10
2022-11-20T10:18:52.861Z,2.92
2022-11-20T10:21:47.433Z,2.80
2022-11-20T10:24:48.483Z,3.65
2022-11-20T10:27:33.327Z,3.15
2022-11-20T10:30:13.566Z,2.28
2022-11-20T10:32:43.298Z,2.00
2022-11-20T10:35:39.200Z,2.17
2022-11-20T10:38:22.589Z,2.90
2022-11-20T10:41:20.808Z,2.17
2022-11-20T10:43:48.913Z,3.28
2022-11-20T10:46:19.634Z,2.00
2022-11-20T10:48:47.341Z,1.77
2022-11-20T10:51:26.034Z,3.00
2022-11-20T10:54:14.131Z,3.22
2022-11-20T10:56:50.623Z,2.10
2022-11-20T10:59:41.529Z,3.85
2022-11-20T11:02:23.258Z,4.13
2022-11-20T11:04:54.880Z,8.70
2022-11-20T11:07:36.971Z,3.80
2022-11-20T11:10:23.731Z,6.30
2022-11-20T11:12:50.482Z,5.28
2022-11-20T11:15:39.097Z,4.32
2022-11-20T11:18:09.540Z,7.15
2022-11-20T11:20:37.295Z,5.30
2022-11-20T11:23:05.513Z,8.88
2022-11-20T11:25:34.822Z,4.65
2022-11-20T11:28:04.554Z,5.25
2022-11-20T11:30:42.357Z,10.00
2022-11-20T11:33:19.597Z,4.97
2022-11-20T11:35:53.463Z,11.25
2022-11-20T11:38:28.276Z,3.00
2022-11-20T11:40:57.412Z,11.82
2022-11-20T11:43:46.130Z,2.55
2022-11-20T11:46:22.060Z,3.17
2022-11-20T11:49:00.001Z,3.10
2022-11-20T11:51:51.420Z,1.90
2022-11-20T11:54:30.828Z,2.78
2022-11-20T11:57:04.471Z,2.88
2022-11-20T12:00:17.167Z,1.92
2022-11-20T12:02:46.685Z,3.00
2022-11-20T12:05:16.733Z,4.00
2022-11-20T12:07:49.455Z,4.10
2022-11-20T12:10:24.022Z,2.85
2022-11-20T12:13:05.309Z,1.92
2022-11-20T12:15:35.223Z,1.80
2022-11-20T12:18:02.772Z,2.50
2022-11-20T12:20:36.384Z,2.00
2022-11-20T12:23:10.625Z,3.83
2022-11-20T12:25:39.279Z,1.63
2022-11-20T12:28:20.548Z,2.03
2022-11-20T12:31:10.113Z,1.67
2022-11-20T12:33:39.852Z,2.33
2022-11-20T12:36:28.691Z,2.40
2022-11-20T12:39:03.288Z,2.17
2022-11-20T12:42:12.287Z,2.75
2022-11-20T12:45:10.359Z,2.97
2022-11-20T12:47:46.538Z,3.60
2022-11-20T12:50:24.168Z,2.80
2022-11-20T12:53:20.595Z,3.28
2022-11-20T12:56:18.749Z,3.53
2022-11-20T12:59:10.271Z,3.85
2022-11-20T13:01:51.262Z,3.25
2022-11-20T13:04:36.662Z,3.80
2022-11-20T13:07:15.796Z,4.47
2022-11-20T13:09:47.757Z,5.15
2022-11-20T13:12:20.374Z,3.67
2022-11-20T13:14:51.807Z,2.50
2022-11-20T13:17:29.387Z,1.50
2022-11-20T13:19:59.720Z,1.38
2022-11-20T13:22:43.787Z,21.58
2022-11-20T13:25:16.326Z,4.43
2022-11-20T13:27:50.051Z,14.82
2022-11-20T13:30:22.447Z,8.23
2022-11-20T13:33:02.057Z,3.47
2022-11-20T13:35:31.596Z,3.08
2022-11-20T13:38:24.584Z,4.07
2022-11-20T13:40:59.285Z,5.10
2022-11-20T13:43:37.798Z,2.03
2022-11-20T13:46:08.089Z,2.85
2022-11-20T13:48:46.338Z,2.28
2022-11-20T13:51:34.881Z,2.92
2022-11-20T13:54:26.133Z,2.38
2022-11-20T13:57:32.965Z,1.33
2022-11-20T14:00:11.997Z,1.30
2022-11-20T14:02:38.911Z,2.20
2022-11-20T14:05:06.475Z,2.15
2022-11-20T14:07:39.890Z,1.75
2022-11-20T14:10:07.140Z,1.27
2022-11-20T14:12:35.063Z,1.77
2022-11-20T14:15:01.968Z,1.20
2022-11-20T14:17:36.523Z,2.10
2022-11-20T14:20:07.166Z,1.52
2022-11-20T14:22:34.076Z,1.40
2022-11-20T14:25:07.051Z,2.05
2022-11-20T14:27:42.105Z,1.38
2022-11-20T14:30:17.295Z,4.00
2022-11-20T14:32:46.194Z,2.00
2022-11-20T14:35:26.026Z,1.73
2022-11-20T14:37:53.152Z,2.80
2022-11-20T14:40:23.623Z,3.00
2022-11-20T14:42:50.544Z,1.95
2022-11-20T14:45:18.241Z,1.85
2022-11-20T14:47:45.965Z,1.90
2022-11-20T14:50:19.190Z,1.77
2022-11-20T14:52:53.831Z,2.05
2022-11-20T14:55:58.626Z,2.60
2022-11-20T14:58:29.511Z,3.13
2022-11-20T15:01:05.985Z,3.83
2022-11-20T15:03:40.911Z,3.38
2022-11-20T15:06:12.623Z,3.25
2022-11-20T15:08:39.410Z,2.22
2022-11-20T15:11:19.088Z,2.25
2022-11-20T15:13:46.053Z,3.15
2022-11-20T15:16:20.342Z,2.67
2022-11-20T15:18:47.784Z,2.78
2022-11-20T15:21:16.614Z,2.38
2022-11-20T15:23:44.021Z,2.35
2022-11-20T15:26:19.655Z,1.90
2022-11-20T15:28:48.729Z,2.17
2022-11-20T15:31:18.949Z,1.88
2022-11-20T15:33:46.083Z,2.92
2022-11-20T15:36:13.454Z,2.40
2022-11-20T15:38:40.336Z,2.28
2022-11-20T15:41:07.911Z,2.33
2022-11-20T15:43:34.739Z,2.60
2022-11-20T15:46:05.336Z,1.42
2022-11-20T15:48:47.916Z,1.50
2022-11-20T15:51:30.180Z,1.90
2022-11-20T15:53:57.736Z,2.42
2022-11-20T15:56:24.793Z,2.83
2022-11-20T15:58:51.608Z,3.20
2022-11-20T16:01:21.686Z,4.05
2022-11-20T16:03:48.768Z,3.83
2022-11-20T16:06:17.057Z,5.60
2022-11-20T16:08:43.987Z,3.75
2022-11-20T16:11:15.285Z,3.88
2022-11-20T16:14:01.444Z,5.72
2022-11-20T16:16:36.430Z,5.03
2022-11-20T16:19:03.590Z,3.38
2022-11-20T16:21:33.450Z,3.22
2022-11-20T16:24:01.484Z,3.70
2022-11-20T16:26:28.677Z,3.70
2022-11-20T16:28:56.059Z,2.67
2022-11-20T16:31:23.364Z,3.40
2022-11-20T16:33:55.171Z,3.78
2022-11-20T16:36:24.245Z,3.60
2022-11-20T16:38:59.060Z,3.60
2022-11-20T16:41:27.096Z,3.53
2022-11-20T16:43:58.092Z,4.38
2022-11-20T16:46:26.794Z,4.50
2022-11-20T16:49:00.607Z,2.70
2022-11-20T16:51:29.395Z,3.30
2022-11-20T16:53:56.709Z,3.40
2022-11-20T16:56:26.280Z,3.33
2022-11-20T16:58:55.772Z,4.90
2022-11-20T17:01:24.136Z,4.43
2022-11-20T17:04:09.283Z,4.50
2022-11-20T17:06:38.115Z,3.67
2022-11-20T17:09:05.299Z,4.05
2022-11-20T17:11:33.528Z,4.88
2022-11-20T17:14:00.824Z,4.55
2022-11-20T17:16:28.057Z,4.20
2022-11-20T17:19:02.265Z,3.75
2022-11-20T17:21:30.266Z,4.55
2022-11-20T17:24:00.277Z,5.82
2022-11-20T17:26:28.300Z,5.97
2022-11-20T17:28:59.842Z,3.33
2022-11-20T17:31:28.367Z,3.55
2022-11-20T17:33:55.540Z,3.00
2022-11-20T17:36:22.862Z,2.55
2022-11-20T17:38:49.766Z,2.80
2022-11-20T17:41:18.871Z,2.58
2022-11-20T17:43:46.152Z,2.20
2022-11-20T17:46:15.465Z,2.40
2022-11-20T17:48:44.214Z,3.17
2022-11-20T17:51:13.857Z,2.63
2022-11-20T17:53:44.445Z,2.97
2022-11-20T17:56:30.739Z,2.60
2022-11-20T17:58:57.732Z,3.00
2022-11-20T18:01:24.985Z,3.90
2022-11-20T18:03:52.231Z,2.28
2022-11-20T18:06:22.269Z,3.13
2022-11-20T18:08:50.354Z,4.63
2022-11-20T18:11:29.319Z,3.80
2022-11-20T18:14:17.035Z,3.42
2022-11-20T18:16:51.686Z,5.05
2022-11-20T18:19:22.373Z,3.53
2022-11-20T18:21:49.343Z,3.08
2022-11-20T18:24:16.523Z,3.00
2022-11-20T18:26:44.743Z,5.07
2022-11-20T18:29:13.535Z,5.13
2022-11-20T18:31:41.007Z,2.55
2022-11-20T18:34:11.580Z,6.18
2022-11-20T18:36:38.989Z,6.25
2022-11-20T18:39:06.303Z,4.63
2022-11-20T18:41:51.705Z,6.75
2022-11-20T18:44:39.680Z,3.10
2022-11-20T18:47:14.089Z,4.57
2022-11-20T18:49:51.028Z,3.47
2022-11-20T18:52:23.420Z,3.97
2022-11-20T18:54:51.053Z,2.03
2022-11-20T18:57:19.806Z,2.40
2022-11-20T18:59:46.674Z,2.10
2022-11-20T19:02:18.474Z,2.90
2022-11-20T19:04:45.530Z,1.30
2022-11-20T19:07:12.496Z,1.70
2022-11-20T19:09:44.267Z,1.58
2022-11-20T19:12:12.615Z,2.30
2022-11-20T19:14:39.984Z,2.20
2022-11-20T19:17:07.906Z,1.70
2022-11-20T19:19:35.623Z,2.00
2022-11-20T19:22:02.560Z,2.58
2022-11-20T19:24:29.511Z,2.15
2022-11-20T19:26:56.860Z,1.33
2022-11-20T19:29:25.097Z,1.20
2022-11-20T19:31:52.280Z,1.10
2022-11-20T19:34:19.190Z,1.27
2022-11-20T19:36:46.516Z,1.90
2022-11-20T19:39:13.813Z,1.00
2022-11-20T19:41:41.403Z,0.90
2022-11-20T19:44:14.098Z,1.45
2022-11-20T19:46:42.038Z,1.92
2022-11-20T19:49:11.350Z,1.77
2022-11-20T19:51:39.877Z,1.80
2022-11-20T19:54:07.612Z,3.58
2022-11-20T19:56:34.822Z,2.40
2022-11-20T19:59:02.089Z,1.88
2022-11-20T20:01:31.081Z,2.67
2022-11-20T20:04:05.293Z,3.13
2022-11-20T20:06:34.948Z,2.10
2022-11-20T20:09:07.890Z,2.50
2022-11-20T20:11:35.989Z,2.35
2022-11-20T20:14:06.453Z,1.75
2022-11-20T20:16:34.323Z,1.67
2022-11-20T20:19:03.235Z,1.27
2022-11-20T20:21:31.548Z,1.75
2022-11-20T20:23:59.269Z,1.63
2022-11-20T20:26:28.054Z,1.30
2022-11-20T20:28:55.217Z,1.20
2022-11-20T20:31:26.452Z,1.00
2022-11-20T20:33:53.896Z,1.50
2022-11-20T20:36:22.108Z,1.40
2022-11-20T20:38:56.207Z,0.98
2022-11-20T20:41:24.866Z,1.15
2022-11-20T20:44:10.741Z,1.60
2022-11-20T20:46:38.095Z,1.00
2022-11-20T20:49:05.006Z,1.13
2022-11-20T20:51:31.894Z,1.17
2022-11-20T20:53:59.386Z,0.77
2022-11-20T20:56:26.338Z,1.25
2022-11-20T20:58:53.653Z,0.90
2022-11-20T21:01:22.719Z,0.98
2022-11-20T21:03:49.876Z,1.20
2022-11-20T21:06:16.725Z,1.02
2022-11-20T21:08:44.651Z,1.10
2022-11-20T21:11:16.906Z,1.00
2022-11-20T21:13:45.136Z,0.90
2022-11-20T21:16:13.316Z,1.00
2022-11-20T21:18:40.125Z,0.88
2022-11-20T21:21:32.221Z,0.75
2022-11-20T21:23:59.303Z,0.95
2022-11-20T21:26:26.188Z,0.80
2022-11-20T21:28:53.006Z,1.02
2022-11-20T21:31:23.632Z,0.65
2022-11-20T21:33:52.355Z,0.68
2022-11-20T21:36:21.650Z,0.90
2022-11-20T21:38:50.720Z,0.60
2022-11-20T21:41:18.136Z,0.80
2022-11-20T21:43:44.949Z,0.80
2022-11-20T21:46:13.804Z,0.60
2022-11-20T21:48:42.382Z,0.88
2022-11-20T21:51:18.104Z,0.80
2022-11-20T21:53:46.408Z,0.70
2022-11-20T21:56:19.945Z,1.02
2022-11-20T21:58:47.960Z,1.25
2022-11-20T22:01:19.114Z,1.42
2022-11-20T22:03:51.522Z,1.15
2022-11-20T22:06:19.485Z,1.25
2022-11-20T22:08:46.504Z,0.80
2022-11-20T22:11:16.069Z,1.40
2022-11-20T22:14:01.779Z,1.05
2022-11-20T22:16:28.690Z,1.17
2022-11-20T22:18:57.045Z,1.20
2022-11-20T22:21:27.137Z,0.70
2022-11-20T22:23:54.682Z,0.50
2022-11-20T22:26:24.276Z,0.77
2022-11-20T22:28:52.793Z,0.88
2022-11-20T22:31:21.363Z,0.70
2022-11-20T22:33:48.565Z,0.90
2022-11-20T22:36:20.926Z,1.15
2022-11-20T22:38:48.333Z,1.20
2022-11-20T22:41:18.069Z,1.70
2022-11-20T22:43:45.762Z,1.58
2022-11-20T22:46:17.553Z,1.05
2022-11-20T22:48:56.012Z,1.73
2022-11-20T22:51:25.388Z,1.25
2022-11-20T22:53:52.461Z,1.83
2022-11-20T22:56:19.698Z,1.48
2022-11-20T22:58:48.539Z,1.90
2022-11-20T23:01:17.680Z,1.10
2022-11-20T23:03:48.263Z,1.40
2022-11-20T23:06:16.897Z,1.30
2022-11-20T23:08:45.295Z,1.33
2022-11-20T23:11:14.310Z,0.80
2022-11-20T23:13:41.998Z,1.17
2022-11-20T23:16:11.502Z,1.02
2022-11-20T23:18:38.989Z,1.20
2022-11-20T23:21:10.972Z,1.10
2022-11-20T23:23:38.383Z,1.10
2022-11-20T23:26:07.835Z,1.05
2022-11-20T23:28:35.371Z,0.85
2022-11-20T23:31:02.970Z,1.05
2022-11-20T23:33:30.304Z,1.05
2022-11-20T23:35:57.245Z,1.00
2022-11-20T23:38:24.023Z,1.02
2022-11-20T23:40:52.124Z,0.90
2022-11-20T23:43:21.384Z,0.90
2022-11-20T23:45:49.178Z,0.90
2022-11-20T23:48:16.841Z,0.82
2022-11-20T23:50:44.853Z,1.05
2022-11-20T23:53:14.370Z,0.85
2022-11-20T23:55:55.435Z,1.20
2022-11-20T23:58:26.084Z,0.95
